Time;durP1;ratioP1;P1;durP2;ratioP2;P2;SDS_P1;SDS_P2;PMS_P1;PMS_P2;Temp;Humidity;BMP_temperature;BMP_pressure;BME280_temperature;BME280_humidity;BME280_pressure;Samples;Min_cycle;Max_cycle;Signal;HPM_P1;HPM_P2
2022/07/20 00:00:10;;;;;;;4.80;3.70;;;;;;;25.06;38.22;100539.88;690954;28;1874;-44
2022/07/20 00:00:30;;;;;;;5.30;3.80;;;;;;;25.06;38.24;100542.56;687383;28;4415;-44
2022/07/20 00:00:51;;;;;;;6.13;3.90;;;;;;;25.06;38.00;100542.56;689730;28;1482;-45
2022/07/20 00:01:11;;;;;;;6.23;3.70;;;;;;;25.07;38.30;100544.25;687793;28;1696;-43
2022/07/20 00:01:32;;;;;;;6.20;3.75;;;;;;;25.07;38.36;100541.56;688294;28;1119;-43
2022/07/20 00:01:52;;;;;;;5.63;3.60;;;;;;;25.08;37.87;100540.63;691418;28;1500;-44
2022/07/20 00:02:12;;;;;;;6.55;3.75;;;;;;;25.09;38.20;100539.66;691432;28;1285;-45
2022/07/20 00:02:33;;;;;;;7.13;3.90;;;;;;;25.09;38.26;100539.66;692063;28;1573;-44
2022/07/20 00:02:53;;;;;;;5.93;4.03;;;;;;;25.10;38.42;100540.50;694604;28;1051;-43
2022/07/20 00:03:14;;;;;;;6.33;3.70;;;;;;;25.10;38.22;100543.19;690693;28;1506;-45
2022/07/20 00:03:34;;;;;;;5.07;3.60;;;;;;;25.11;37.86;100539.56;690955;28;4274;-44
2022/07/20 00:03:54;;;;;;;5.47;3.85;;;;;;;25.10;38.36;100538.72;689614;28;1622;-45
2022/07/20 00:04:16;;;;;;;5.63;3.73;;;;;;;25.13;38.03;100537.63;690222;28;1177;-44
2022/07/20 00:04:36;;;;;;;5.97;3.60;;;;;;;25.12;38.26;100542.13;689617;28;1480;-45
2022/07/20 00:04:57;;;;;;;4.90;3.63;;;;;;;25.12;38.21;100542.13;689600;28;1610;-44
2022/07/20 00:05:17;;;;;;;5.97;3.80;;;;;;;25.13;38.37;100538.50;691451;28;1412;-45
2022/07/20 00:05:39;;;;;;;7.65;3.85;;;;;;;25.14;38.23;100539.34;691889;28;1154;-46
2022/07/20 00:05:59;;;;;;;6.22;3.72;;;;;;;25.13;38.41;100535.81;692672;28;1375;-44
2022/07/20 00:06:19;;;;;;;5.07;3.70;;;;;;;25.13;38.79;100538.50;690724;28;4485;-44
2022/07/20 00:06:40;;;;;;;5.37;3.57;;;;;;;25.12;38.53;100542.13;690894;28;1494;-44
2022/07/20 00:07:00;;;;;;;6.55;3.72;;;;;;;25.12;38.68;100534.09;690589;28;1286;-43
2022/07/20 00:07:20;;;;;;;5.70;3.90;;;;;;;25.14;39.48;100536.69;691212;28;1009;-46
2022/07/20 00:07:41;;;;;;;7.23;4.00;;;;;;;25.13;39.36;100533.16;690844;28;1340;-44
2022/07/20 00:08:02;;;;;;;6.60;3.50;;;;;;;25.12;38.86;100536.78;690809;28;1718;-44
2022/07/20 00:11:36;;;;;;;5.88;3.85;;;;;;;25.02;38.80;100535.72;691986;28;1052;-45
2022/07/20 00:11:56;;;;;;;6.32;3.75;;;;;;;25.04;38.53;100536.44;691005;28;1054;-44
2022/07/20 00:12:17;;;;;;;5.60;3.80;;;;;;;25.03;38.21;100537.41;690706;28;4608;-43
2022/07/20 00:12:37;;;;;;;5.57;3.90;;;;;;;25.03;38.39;100533.88;690451;28;1435;-43
2022/07/20 00:12:57;;;;;;;5.27;3.70;;;;;;;25.03;38.35;100534.72;691635;28;1598;-44
2022/07/20 00:13:18;;;;;;;6.57;3.75;;;;;;;25.04;38.34;100536.44;691206;28;1743;-45
2022/07/20 00:13:39;;;;;;;6.93;4.10;;;;;;;25.05;38.45;100538.16;687695;28;1447;-46
2022/07/20 00:14:02;;;;;;;5.68;4.00;;;;;;;25.04;38.35;100535.59;687936;28;1435;-45
2022/07/20 00:14:23;;;;;;;5.43;3.90;;;;;;;25.03;38.45;100537.41;690167;28;1509;-45
2022/07/20 00:14:43;;;;;;;6.50;3.80;;;;;;;25.04;38.53;100533.78;691633;28;1572;-45
2022/07/20 00:15:04;;;;;;;6.47;3.87;;;;;;;25.06;38.70;100536.34;690550;28;1238;-43
2022/07/20 00:15:24;;;;;;;6.95;3.90;;;;;;;25.07;38.51;100538.91;690426;28;4314;-43
2022/07/20 00:15:45;;;;;;;6.20;3.92;;;;;;;25.06;38.63;100531.88;691215;28;1087;-43
2022/07/20 00:16:06;;;;;;;6.17;3.70;;;;;;;25.08;38.53;100537.94;689615;28;1257;-45
2022/07/20 00:16:28;;;;;;;6.07;3.50;;;;;;;25.07;39.04;100538.91;690382;28;1223;-43
2022/07/20 00:16:49;;;;;;;6.85;3.55;;;;;;;25.05;38.63;100540.00;690619;28;1291;-44
2022/07/20 00:17:09;;;;;;;5.80;3.80;;;;;;;25.03;38.78;100540.06;690281;28;1346;-43
2022/07/20 00:17:29;;;;;;;5.50;3.63;;;;;;;25.03;38.81;100536.56;691040;28;1746;-45
2022/07/20 00:17:50;;;;;;;6.18;3.78;;;;;;;25.02;38.79;100534.81;691489;28;1638;-51
2022/07/20 00:18:10;;;;;;;7.03;3.90;;;;;;;25.01;38.87;100533.97;690207;28;1354;-44
2022/07/20 00:18:31;;;;;;;6.95;3.75;;;;;;;25.00;38.76;100532.25;690834;28;4597;-44
2022/07/20 00:18:51;;;;;;;5.73;3.70;;;;;;;25.01;38.88;100535.81;691179;28;1988;-43
2022/07/20 00:19:11;;;;;;;4.90;3.73;;;;;;;25.01;39.03;100536.66;691242;28;1155;-50
2022/07/20 00:19:32;;;;;;;5.43;3.60;;;;;;;25.01;39.13;100531.31;692784;28;1207;-43
2022/07/20 00:19:54;;;;;;;5.70;3.63;;;;;;;24.99;39.42;100536.75;690843;28;1671;-44
2022/07/20 00:20:15;;;;;;;5.47;3.72;;;;;;;24.99;38.78;100542.13;691464;28;1131;-44
2022/07/20 00:20:36;;;;;;;5.33;3.80;;;;;;;24.97;38.93;100535.16;691640;28;1343;-44
2022/07/20 00:20:56;;;;;;;5.88;3.70;;;;;;;24.95;38.94;100537.94;691733;28;1021;-44
2022/07/20 00:21:17;;;;;;;5.90;3.75;;;;;;;24.97;39.17;100543.16;690702;28;4419;-43
2022/07/20 00:21:38;;;;;;;5.93;3.67;;;;;;;24.98;39.00;100539.53;687987;28;1481;-45
2022/07/20 00:21:58;;;;;;;5.28;3.50;;;;;;;24.96;38.95;100542.31;689237;28;1416;-46
2022/07/20 00:22:18;;;;;;;6.27;3.70;;;;;;;24.96;38.87;100536.09;686026;28;1232;-44
2022/07/20 00:22:39;;;;;;;6.70;3.85;;;;;;;25.00;38.39;100534.94;686106;28;1422;-44
2022/07/20 00:22:59;;;;;;;6.60;4.10;;;;;;;25.01;38.78;100539.34;686942;28;1413;-43
2022/07/20 00:23:20;;;;;;;5.50;3.88;;;;;;;25.00;38.55;100537.59;688642;28;1144;-44
2022/07/20 00:23:40;;;;;;;6.07;3.70;;;;;;;24.98;38.73;100534.19;690756;28;1673;-46
2022/07/20 00:24:00;;;;;;;6.03;3.75;;;;;;;24.99;38.69;100535.88;691022;28;1383;-44
2022/07/20 00:24:21;;;;;;;5.53;3.80;;;;;;;24.98;38.87;100534.19;689834;28;4527;-44
2022/07/20 00:24:42;;;;;;;5.23;3.80;;;;;;;24.97;38.42;100532.47;691374;28;1150;-43
2022/07/20 00:25:03;;;;;;;5.80;3.70;;;;;;;24.96;38.54;100542.31;690426;28;1076;-44
2022/07/20 00:25:25;;;;;;;6.05;3.78;;;;;;;24.97;38.47;100535.16;692494;28;1593;-44
2022/07/20 00:25:45;;;;;;;6.60;3.80;;;;;;;24.97;38.42;100537.81;690791;28;1458;-45
2022/07/20 00:26:05;;;;;;;5.00;3.70;;;;;;;24.96;39.11;100534.31;690533;28;1088;-43
2022/07/20 00:26:26;;;;;;;5.30;3.60;;;;;;;24.97;38.84;100535.16;691400;28;1344;-44
2022/07/20 00:26:46;;;;;;;6.00;3.80;;;;;;;24.98;38.45;100544.91;692907;28;1285;-43
2022/07/20 00:27:06;;;;;;;5.95;4.10;;;;;;;24.97;38.79;100536.00;693153;28;1027;-46
2022/07/20 00:27:27;;;;;;;7.20;4.10;;;;;;;24.97;38.48;100532.47;691412;28;4298;-44
2022/07/20 00:27:47;;;;;;;5.88;3.75;;;;;;;24.98;38.38;100537.72;692520;28;1206;-44
2022/07/20 00:28:08;;;;;;;5.30;3.80;;;;;;;24.97;38.63;100535.16;691984;28;1590;-43
2022/07/20 00:28:28;;;;;;;4.90;3.77;;;;;;;24.96;39.21;100534.31;685462;28;1270;-44
2022/07/20 00:28:51;;;;;;;5.78;3.67;;;;;;;24.96;39.10;100539.66;687008;28;1622;-44
2022/07/20 00:29:12;;;;;;;6.18;3.50;;;;;;;24.97;38.97;100530.66;687887;28;1269;-44
2022/07/20 00:29:32;;;;;;;6.20;3.80;;;;;;;24.97;38.79;100533.31;689162;28;1159;-44
2022/07/20 00:29:53;;;;;;;5.95;3.80;;;;;;;25.01;38.99;100539.34;688727;28;1120;-45
2022/07/20 00:30:13;;;;;;;5.40;3.70;;;;;;;25.02;38.77;100534.81;689417;28;1047;-44
2022/07/20 00:30:33;;;;;;;7.20;3.80;;;;;;;24.99;39.36;100530.53;689797;28;4358;-44
2022/07/20 00:30:54;;;;;;;6.10;3.90;;;;;;;24.98;40.04;100529.69;691541;28;922;-43
2022/07/20 00:31:14;;;;;;;6.20;3.90;;;;;;;24.96;39.09;100530.75;690206;28;1918;-44
2022/07/20 00:31:34;;;;;;;7.45;3.90;;;;;;;24.95;39.89;100534.38;691961;28;1078;-44
2022/07/20 00:31:55;;;;;;;5.60;3.70;;;;;;;24.91;39.86;100525.72;691845;28;1307;-45
2022/07/20 00:32:15;;;;;;;6.15;3.70;;;;;;;24.89;39.49;100524.13;690976;28;1178;-44
2022/07/20 00:32:39;;;;;;;5.27;3.70;;;;;;;24.89;39.21;100529.47;689433;28;1234;-44
2022/07/20 00:33:00;;;;;;;5.28;3.90;;;;;;;24.88;39.64;100525.94;691538;28;1447;-45
2022/07/20 00:33:20;;;;;;;5.80;3.80;;;;;;;24.88;39.53;100533.09;691556;28;4423;-44
2022/07/20 00:33:41;;;;;;;6.25;3.70;;;;;;;24.88;39.56;100527.75;691099;28;1057;-44
2022/07/20 00:34:02;;;;;;;6.25;3.80;;;;;;;24.88;39.50;100530.41;690803;28;1311;-44
2022/07/20 00:34:22;;;;;;;7.33;4.00;;;;;;;24.88;40.26;100528.63;690956;28;1417;-45
2022/07/20 00:34:42;;;;;;;5.63;3.80;;;;;;;24.85;40.04;100527.94;688068;28;1107;-44
2022/07/20 00:35:05;;;;;;;6.13;3.80;;;;;;;24.85;39.66;100526.13;687523;28;1111;-43
2022/07/20 00:35:25;;;;;;;7.13;3.92;;;;;;;24.85;39.56;100522.59;689888;28;1225;-44
2022/07/20 00:35:46;;;;;;;6.47;4.00;;;;;;;24.83;39.46;100524.53;689754;28;1120;-44
2022/07/20 00:36:06;;;;;;;5.93;3.90;;;;;;;24.80;39.34;100523.78;687565;28;1051;-44
2022/07/20 00:36:27;;;;;;;5.30;3.80;;;;;;;24.81;39.24;100528.16;688570;28;4284;-44
2022/07/20 00:36:47;;;;;;;5.07;3.75;;;;;;;24.81;39.37;100522.81;693105;28;1095;-44
2022/07/20 00:37:07;;;;;;;5.27;3.93;;;;;;;24.81;39.51;100519.25;693284;28;1010;-44
2022/07/20 00:37:28;;;;;;;6.20;3.80;;;;;;;24.80;39.45;100521.09;693175;28;1059;-44
2022/07/20 00:37:48;;;;;;;6.60;3.78;;;;;;;24.81;39.50;100527.28;691987;28;973;-44
2022/07/20 00:38:08;;;;;;;5.77;4.10;;;;;;;24.80;39.50;100526.44;689210;28;1075;-45
2022/07/20 00:38:29;;;;;;;5.97;3.80;;;;;;;24.79;39.62;100524.72;688155;28;992;-45
2022/07/20 00:38:49;;;;;;;5.70;3.85;;;;;;;24.81;39.25;100527.28;687907;28;981;-43
2022/07/20 00:39:09;;;;;;;6.10;3.87;;;;;;;24.83;38.92;100524.53;687313;28;1023;-45
2022/07/20 00:39:30;;;;;;;6.70;4.10;;;;;;;24.83;38.75;100528.06;685337;28;4369;-44
2022/07/20 00:39:50;;;;;;;7.10;4.32;;;;;;;24.83;38.76;100522.72;687762;28;1480;-44
2022/07/20 00:40:13;;;;;;;6.80;3.97;;;;;;;24.85;38.74;100523.44;691209;28;1067;-45
2022/07/20 00:40:33;;;;;;;5.85;3.75;;;;;;;24.85;39.16;100523.44;691669;28;1080;-45
2022/07/20 00:40:54;;;;;;;5.90;3.77;;;;;;;24.85;39.24;100528.78;690751;28;1071;-44
2022/07/20 00:41:14;;;;;;;5.60;3.80;;;;;;;24.85;38.90;100527.94;689784;28;1410;-43
2022/07/20 00:41:35;;;;;;;8.03;3.90;;;;;;;24.87;38.53;100534.03;690497;28;1109;-45
2022/07/20 00:41:55;;;;;;;7.03;3.95;;;;;;;24.88;38.84;100527.75;691146;28;1266;-44
2022/07/20 00:42:15;;;;;;;6.00;3.73;;;;;;;24.88;38.85;100527.75;690863;28;1246;-44
2022/07/20 00:42:36;;;;;;;5.00;3.57;;;;;;;24.87;39.32;100532.25;690124;28;4407;-44
2022/07/20 00:42:57;;;;;;;5.90;3.92;;;;;;;24.88;39.21;100528.63;690389;28;1404;-44
2022/07/20 00:43:17;;;;;;;6.53;4.00;;;;;;;24.87;38.92;100526.91;689334;28;1023;-44
2022/07/20 00:43:53;;;;;;;5.57;3.87;;;;;;;24.86;40.54;100524.31;691048;28;1231;-45
2022/07/20 00:44:13;;;;;;;6.78;4.18;;;;;;;24.87;40.13;100521.53;691699;28;1111;-44
2022/07/20 00:44:34;;;;;;;6.00;3.97;;;;;;;24.89;40.32;100527.63;692388;28;969;-43
2022/07/20 00:44:54;;;;;;;5.43;3.80;;;;;;;24.88;39.69;100530.41;690772;28;1184;-44
2022/07/20 00:45:15;;;;;;;6.00;3.90;;;;;;;24.86;39.81;100522.50;690292;28;1207;-47
2022/07/20 00:45:35;;;;;;;6.97;3.72;;;;;;;24.87;39.69;100526.91;691155;28;4359;-45
2022/07/20 00:45:55;;;;;;;5.73;3.80;;;;;;;24.87;39.83;100526.00;691930;28;1170;-43
2022/07/20 00:46:16;;;;;;;5.40;3.90;;;;;;;24.84;39.53;100528.91;692352;28;1049;-44
2022/07/20 00:46:39;;;;;;;6.23;3.70;;;;;;;24.84;39.49;100526.22;691188;28;1055;-44
2022/07/20 00:46:59;;;;;;;5.55;3.75;;;;;;;24.84;39.94;100526.22;691955;28;5120;-44
2022/07/20 00:47:20;;;;;;;6.05;3.90;;;;;;;24.83;39.75;100524.53;689841;28;1168;-45
2022/07/20 00:47:40;;;;;;;6.40;3.80;;;;;;;24.83;39.49;100519.19;692059;28;1082;-45
2022/07/20 00:48:01;;;;;;;5.50;3.67;;;;;;;24.83;39.64;100529.88;691062;28;1177;-44
2022/07/20 00:48:21;;;;;;;5.82;3.90;;;;;;;24.81;39.83;100525.50;690311;28;4585;-44
2022/07/20 00:48:41;;;;;;;6.27;4.00;;;;;;;24.81;40.26;100525.50;691399;28;1074;-44
2022/07/20 00:49:03;;;;;;;7.57;3.90;;;;;;;24.79;39.86;100518.53;690128;28;1122;-45
2022/07/20 00:49:23;;;;;;;7.20;3.72;;;;;;;24.77;40.01;100521.31;689740;28;1099;-44
2022/07/20 00:49:44;;;;;;;7.13;3.80;;;;;;;24.78;39.83;100527.50;691695;28;1137;-44
2022/07/20 00:50:06;;;;;;;5.93;3.83;;;;;;;24.77;39.77;100523.97;691516;28;1171;-43
2022/07/20 00:50:27;;;;;;;6.60;4.07;;;;;;;24.77;39.79;100523.97;693608;28;1052;-44
2022/07/20 00:50:47;;;;;;;6.22;3.92;;;;;;;24.76;39.77;100522.25;691138;28;1071;-45
2022/07/20 00:51:08;;;;;;;5.30;3.97;;;;;;;24.77;39.14;100523.97;691400;28;1928;-44
2022/07/20 00:51:29;;;;;;;6.13;3.93;;;;;;;24.78;39.32;100516.81;690219;28;4561;-44
2022/07/20 00:51:49;;;;;;;6.72;3.78;;;;;;;24.78;39.11;100523.03;690038;28;1130;-43
2022/07/20 00:52:10;;;;;;;6.60;3.80;;;;;;;24.78;39.68;100523.03;691818;28;1161;-45
2022/07/20 00:52:30;;;;;;;6.07;3.80;;;;;;;24.76;40.03;100518.75;690587;28;1075;-45
2022/07/20 00:52:50;;;;;;;5.40;3.78;;;;;;;24.74;40.13;100521.53;691710;28;1111;-45
2022/07/20 00:53:11;;;;;;;5.23;3.60;;;;;;;24.73;40.87;100522.47;691006;28;1052;-44
2022/07/20 00:53:31;;;;;;;5.40;3.90;;;;;;;24.72;40.77;100523.41;691476;28;1129;-44
2022/07/20 00:53:53;;;;;;;6.05;3.90;;;;;;;24.71;41.15;100521.69;690826;28;1080;-44
2022/07/20 00:54:14;;;;;;;6.20;4.00;;;;;;;24.71;41.56;100518.19;691241;28;1099;-44
2022/07/20 00:54:35;;;;;;;7.13;3.92;;;;;;;24.69;41.76;100522.75;693570;28;4281;-44
2022/07/20 00:54:56;;;;;;;6.28;3.70;;;;;;;24.68;41.46;100516.56;694229;28;1047;-43
2022/07/20 00:55:17;;;;;;;5.40;3.77;;;;;;;24.67;41.19;100520.19;693445;28;1294;-44
2022/07/20 00:55:37;;;;;;;5.47;3.72;;;;;;;24.66;40.98;100518.50;694168;28;749;-45
2022/07/20 00:55:58;;;;;;;6.47;3.80;;;;;;;24.64;41.41;100515.91;695022;28;1075;-44
2022/07/20 00:56:19;;;;;;;5.90;3.80;;;;;;;24.65;41.67;100516.78;692854;28;1023;-44
2022/07/20 00:56:40;;;;;;;5.93;3.85;;;;;;;24.65;40.17;100516.78;692294;28;1074;-44
2022/07/20 00:57:00;;;;;;;7.33;3.83;;;;;;;24.64;40.44;100518.56;691204;28;1537;-44
2022/07/20 00:57:21;;;;;;;7.75;3.65;;;;;;;24.63;40.18;100514.22;690950;28;4504;-44
2022/07/20 00:57:41;;;;;;;7.30;3.50;;;;;;;24.62;40.31;100519.66;690448;28;1021;-44
2022/07/20 00:58:02;;;;;;;6.47;3.60;;;;;;;24.63;39.96;100513.34;691699;28;1043;-45
2022/07/20 00:58:22;;;;;;;6.37;3.50;;;;;;;24.64;40.26;100515.91;690412;28;1184;-45
2022/07/20 00:58:43;;;;;;;6.20;3.80;;;;;;;24.64;40.01;100515.91;690418;28;1226;-44
2022/07/20 00:59:05;;;;;;;5.47;4.00;;;;;;;24.62;40.17;100515.16;690052;28;1259;-44
2022/07/20 00:59:26;;;;;;;6.95;4.22;;;;;;;24.63;40.19;100514.22;691165;28;1107;-46
2022/07/20 00:59:46;;;;;;;6.15;3.80;;;;;;;24.63;40.09;100516.00;690518;28;988;-44
2022/07/20 01:00:08;;;;;;;5.43;3.77;;;;;;;24.62;39.93;100514.31;690837;28;1006;-43
2022/07/20 01:00:28;;;;;;;6.07;3.90;;;;;;;24.63;39.80;100516.00;690174;28;4343;-44
2022/07/20 01:00:49;;;;;;;6.20;3.70;;;;;;;24.63;39.33;100510.66;691208;28;1118;-44
2022/07/20 01:01:10;;;;;;;5.90;3.80;;;;;;;24.65;39.32;100511.44;691608;28;1052;-44
2022/07/20 01:01:33;;;;;;;5.55;3.60;;;;;;;24.66;39.38;100510.47;691244;28;1040;-44
2022/07/20 01:01:55;;;;;;;6.35;3.65;;;;;;;24.65;40.41;100514.09;690047;28;1217;-49
2022/07/20 01:02:15;;;;;;;6.85;3.58;;;;;;;24.64;40.51;100507.03;690900;28;1024;-45
2022/07/20 01:02:37;;;;;;;6.83;3.80;;;;;;;24.63;40.18;100508.88;691025;28;1221;-45
2022/07/20 01:02:58;;;;;;;6.93;3.60;;;;;;;24.64;40.10;100509.72;691528;28;1060;-44
2022/07/20 01:03:18;;;;;;;7.45;3.95;;;;;;;24.63;39.63;100508.88;691309;28;4546;-45
2022/07/20 01:03:39;;;;;;;7.07;3.80;;;;;;;24.65;39.74;100508.75;690825;28;1242;-44
2022/07/20 01:04:00;;;;;;;6.75;3.72;;;;;;;24.64;39.62;100507.03;690838;28;1182;-44
2022/07/20 01:04:21;;;;;;;7.22;3.88;;;;;;;24.64;39.83;100510.56;690357;28;1213;-43
2022/07/20 01:04:41;;;;;;;5.57;3.75;;;;;;;24.65;40.59;100508.75;691876;28;1381;-43
2022/07/20 01:05:02;;;;;;;5.97;3.43;;;;;;;24.65;40.01;100506.09;690544;28;1195;-44
2022/07/20 01:05:24;;;;;;;5.75;3.83;;;;;;;24.65;41.06;100506.94;691098;28;1421;-44
2022/07/20 01:05:45;;;;;;;5.95;3.78;;;;;;;24.65;41.17;100504.25;691207;28;1278;-44
2022/07/20 01:06:05;;;;;;;5.57;3.72;;;;;;;24.62;40.80;100504.47;689055;28;1128;-46
2022/07/20 01:06:26;;;;;;;6.73;3.83;;;;;;;24.62;41.08;100501.78;689545;28;4555;-44
2022/07/20 01:06:47;;;;;;;6.55;3.88;;;;;;;24.61;41.22;100504.56;690879;28;1386;-44
2022/07/20 01:07:07;;;;;;;6.05;3.80;;;;;;;24.59;41.60;100498.44;690188;28;1174;-43
2022/07/20 01:07:28;;;;;;;5.90;3.63;;;;;;;24.59;40.96;100504.66;687814;28;1374;-44
2022/07/20 01:07:49;;;;;;;5.45;3.72;;;;;;;24.59;40.58;100501.09;689540;28;1207;-44
2022/07/20 01:08:09;;;;;;;6.03;3.88;;;;;;;24.58;40.60;100507.44;690706;28;1237;-45
2022/07/20 01:08:30;;;;;;;6.83;3.97;;;;;;;24.58;40.22;100499.41;689839;28;1216;-43
2022/07/20 01:08:51;;;;;;;6.47;3.72;;;;;;;24.58;40.26;100504.75;690866;28;1060;-44
2022/07/20 01:09:11;;;;;;;6.50;3.80;;;;;;;24.59;40.01;100501.09;689212;28;1157;-44
2022/07/20 01:09:32;;;;;;;6.00;3.77;;;;;;;24.60;39.88;100497.47;689704;28;4301;-44
2022/07/20 01:09:52;;;;;;;5.13;3.63;;;;;;;24.59;39.87;100503.78;690845;28;1152;-44
2022/07/20 01:10:14;;;;;;;5.57;3.90;;;;;;;24.59;39.77;100495.75;690491;28;1642;-45
2022/07/20 01:10:35;;;;;;;6.82;4.25;;;;;;;24.59;39.90;100498.44;690295;28;1171;-44
2022/07/20 01:10:56;;;;;;;6.63;3.73;;;;;;;24.60;39.88;100498.34;687764;28;1234;-44
2022/07/20 01:11:17;;;;;;;5.78;3.63;;;;;;;24.61;40.00;100501.91;687770;28;1968;-43
2022/07/20 01:11:38;;;;;;;6.70;3.88;;;;;;;24.63;40.67;100497.28;688143;28;1096;-44
2022/07/20 01:11:58;;;;;;;6.03;3.80;;;;;;;24.62;40.67;100496.44;690007;28;1324;-44
2022/07/20 01:12:19;;;;;;;5.45;3.70;;;;;;;24.61;40.02;100496.56;689080;28;4600;-44
2022/07/20 01:12:44;;;;;;;5.60;3.97;;;;;;;24.61;40.44;100497.41;691901;28;1420;-44
2022/07/20 01:13:04;;;;;;;6.78;3.72;;;;;;;24.61;40.23;100499.22;689215;28;1255;-43
2022/07/20 01:13:25;;;;;;;6.50;3.60;;;;;;;24.59;40.79;100493.97;690126;28;1278;-47
2022/07/20 01:13:46;;;;;;;6.80;3.97;;;;;;;24.59;40.67;100501.09;690452;28;1394;-46
2022/07/20 01:14:07;;;;;;;5.85;3.80;;;;;;;24.58;40.97;100497.59;693171;28;1099;-43
2022/07/20 01:14:28;;;;;;;5.88;3.50;;;;;;;24.58;40.80;100497.59;693873;28;1185;-43
2022/07/20 01:14:53;;;;;;;6.53;3.77;;;;;;;24.57;41.67;100498.53;693669;28;1063;-43
2022/07/20 01:15:15;;;;;;;7.22;4.10;;;;;;;24.58;41.37;100504.75;693129;28;1210;-44
2022/07/20 01:15:35;;;;;;;5.85;3.65;;;;;;;24.58;40.57;100494.06;693782;28;4316;-44
2022/07/20 01:15:56;;;;;;;5.63;3.53;;;;;;;24.57;41.58;100501.22;693040;28;1136;-45
2022/07/20 01:16:17;;;;;;;6.67;3.97;;;;;;;24.59;40.46;100501.09;689991;28;1108;-43
2022/07/20 01:16:38;;;;;;;5.90;3.63;;;;;;;24.60;39.90;100494.81;690750;28;1396;-45
2022/07/20 01:16:59;;;;;;;5.50;3.80;;;;;;;24.60;40.17;100497.47;691018;28;1214;-44
2022/07/20 01:17:19;;;;;;;7.00;3.80;;;;;;;24.59;40.11;100496.63;687682;28;1045;-45
2022/07/20 01:17:39;;;;;;;7.53;3.70;;;;;;;24.59;40.01;100501.97;685568;28;1180;-44
2022/07/20 01:18:00;;;;;;;7.40;3.87;;;;;;;24.60;39.91;100497.47;685471;28;1333;-44
2022/07/20 01:18:21;;;;;;;6.10;3.95;;;;;;;24.59;39.90;100501.97;687433;28;4318;-45
2022/07/20 01:18:41;;;;;;;6.53;3.73;;;;;;;24.59;40.14;100501.97;682632;28;1271;-43
2022/07/20 01:19:03;;;;;;;6.57;3.75;;;;;;;24.61;39.67;100499.22;685236;28;1255;-45
2022/07/20 01:19:23;;;;;;;6.05;3.90;;;;;;;24.59;39.70;100501.97;688664;28;2049;-44
2022/07/20 01:19:43;;;;;;;6.63;3.97;;;;;;;24.60;39.81;100498.34;691680;28;1199;-44
2022/07/20 01:20:04;;;;;;;6.20;3.97;;;;;;;24.61;39.78;100496.56;692164;28;1412;-45
2022/07/20 01:20:25;;;;;;;6.88;4.03;;;;;;;24.62;40.44;100500.97;691152;28;1380;-43
2022/07/20 01:20:48;;;;;;;5.93;3.70;;;;;;;24.62;40.27;100503.63;691071;28;1326;-44
2022/07/20 01:21:10;;;;;;;6.88;4.00;;;;;;;24.62;40.74;100501.78;694121;28;1351;-44
2022/07/20 01:21:31;;;;;;;7.07;3.80;;;;;;;24.62;40.85;100498.28;689587;28;4435;-44
2022/07/20 01:21:51;;;;;;;5.57;3.70;;;;;;;24.60;40.83;100500.16;693756;28;1227;-44
2022/07/20 01:22:12;;;;;;;6.70;3.80;;;;;;;24.61;40.47;100493.88;693013;28;1345;-44
2022/07/20 01:22:32;;;;;;;7.23;3.97;;;;;;;24.61;40.60;100504.56;690348;28;1562;-44
2022/07/20 01:22:52;;;;;;;6.43;3.93;;;;;;;24.62;39.62;100495.59;691117;28;1492;-44
2022/07/20 01:23:17;;;;;;;5.73;4.00;;;;;;;24.61;40.02;100497.41;687723;28;1393;-44
2022/07/20 01:23:37;;;;;;;7.03;3.95;;;;;;;24.61;41.75;100500.06;688967;28;1200;-45
2022/07/20 01:23:58;;;;;;;6.15;4.20;;;;;;;24.59;42.33;100498.44;689283;28;1078;-44
2022/07/20 01:24:18;;;;;;;6.20;4.00;;;;;;;24.58;42.37;100496.75;687668;28;4585;-45
2022/07/20 01:24:38;;;;;;;6.63;3.90;;;;;;;24.57;41.54;100497.69;688856;28;1152;-44
2022/07/20 01:24:59;;;;;;;7.37;4.17;;;;;;;24.56;40.43;100499.50;689697;28;1275;-46
2022/07/20 01:25:19;;;;;;;7.03;4.20;;;;;;;24.59;40.72;100506.44;690244;28;1013;-45
2022/07/20 01:25:39;;;;;;;7.07;4.00;;;;;;;24.58;40.61;100494.91;691103;28;1517;-44
2022/07/20 01:26:00;;;;;;;7.67;4.20;;;;;;;24.57;40.62;100500.34;691362;28;1110;-45
2022/07/20 01:26:21;;;;;;;6.15;4.10;;;;;;;24.57;40.56;100495.00;691408;28;1012;-44
2022/07/20 01:26:44;;;;;;;6.53;3.80;;;;;;;24.59;39.71;100506.44;689361;28;1273;-43
2022/07/20 01:27:05;;;;;;;5.72;3.97;;;;;;;24.59;40.21;100495.75;687849;28;1271;-45
2022/07/20 01:27:25;;;;;;;5.95;4.07;;;;;;;24.60;40.45;100502.81;687803;28;4642;-45
2022/07/20 01:27:46;;;;;;;5.03;3.70;;;;;;;24.61;40.96;100500.06;691649;28;1307;-44
2022/07/20 01:28:07;;;;;;;5.05;3.53;;;;;;;24.60;40.38;100498.34;687481;28;1029;-45
2022/07/20 01:28:29;;;;;;;5.97;3.80;;;;;;;24.61;40.52;100496.56;687619;28;1122;-43
2022/07/20 01:28:50;;;;;;;7.13;3.92;;;;;;;24.59;40.67;100501.97;691213;28;1143;-44
2022/07/20 01:29:13;;;;;;;6.20;3.90;;;;;;;24.58;40.63;100502.94;691519;28;1023;-44
2022/07/20 01:29:33;;;;;;;6.40;3.78;;;;;;;24.58;40.46;100504.75;686670;28;1140;-46
2022/07/20 01:29:53;;;;;;;5.77;3.90;;;;;;;24.59;39.56;100503.78;687185;28;1159;-45
2022/07/20 01:30:14;;;;;;;6.00;3.80;;;;;;;24.59;39.76;100501.09;689006;28;1392;-45
2022/07/20 01:30:35;;;;;;;5.50;3.75;;;;;;;24.59;39.75;100501.09;687787;28;5307;-44
2022/07/20 01:30:55;;;;;;;5.47;3.95;;;;;;;24.58;40.63;100494.91;687552;28;1088;-45
2022/07/20 01:31:16;;;;;;;5.07;3.80;;;;;;;24.59;40.13;100503.78;687935;28;1966;-43
2022/07/20 01:31:36;;;;;;;7.45;4.00;;;;;;;24.57;40.09;100503.88;690678;28;1279;-44
2022/07/20 01:31:57;;;;;;;7.27;4.03;;;;;;;24.58;39.45;100504.75;691164;28;1168;-44
2022/07/20 01:32:17;;;;;;;5.70;4.00;;;;;;;24.60;39.76;100497.47;690563;28;952;-44
2022/07/20 01:32:37;;;;;;;7.17;3.90;;;;;;;24.62;39.65;100506.28;690827;28;1254;-44
2022/07/20 01:32:58;;;;;;;7.70;3.80;;;;;;;24.63;39.73;100505.31;691974;28;1182;-46
2022/07/20 01:33:19;;;;;;;6.15;3.88;;;;;;;24.61;40.79;100500.06;690899;28;4499;-45
2022/07/20 01:33:39;;;;;;;7.20;3.60;;;;;;;24.60;40.27;100508.16;691470;28;1245;-44
2022/07/20 01:34:00;;;;;;;6.23;3.60;;;;;;;24.60;40.11;100502.81;691127;28;1216;-46
2022/07/20 01:34:20;;;;;;;5.25;3.78;;;;;;;24.58;39.78;100502.94;691212;28;1046;-43
2022/07/20 01:34:40;;;;;;;5.37;3.70;;;;;;;24.59;39.84;100507.31;691265;28;1218;-44
2022/07/20 01:35:01;;;;;;;5.90;3.97;;;;;;;24.60;39.84;100503.69;692181;28;1289;-46
2022/07/20 01:35:21;;;;;;;6.20;4.00;;;;;;;24.61;39.82;100507.25;691750;28;1314;-45
2022/07/20 01:35:41;;;;;;;6.33;4.10;;;;;;;24.59;39.85;100507.31;690103;28;1338;-43
2022/07/20 01:36:02;;;;;;;6.10;4.10;;;;;;;24.58;40.83;100508.28;687266;28;3978;-45
2022/07/20 01:36:23;;;;;;;5.60;3.70;;;;;;;24.57;40.29;100505.69;687179;28;4543;-44
2022/07/20 01:36:43;;;;;;;5.55;3.83;;;;;;;24.56;40.13;100502.19;689470;28;1420;-43
2022/07/20 01:37:03;;;;;;;7.03;4.27;;;;;;;24.54;41.72;100501.41;688306;28;1218;-44
2022/07/20 01:37:24;;;;;;;6.40;3.80;;;;;;;24.53;42.01;100506.88;691086;28;1356;-44
2022/07/20 01:37:44;;;;;;;5.38;3.53;;;;;;;24.50;41.88;100499.91;689537;28;1524;-44
2022/07/20 01:38:04;;;;;;;5.50;3.70;;;;;;;24.50;41.65;100507.06;689879;28;1496;-43
2022/07/20 01:38:25;;;;;;;6.35;3.80;;;;;;;24.48;41.55;100502.69;691458;28;1470;-44
2022/07/20 01:38:45;;;;;;;6.70;3.70;;;;;;;24.51;41.99;100504.28;692473;28;1040;-44
2022/07/20 01:39:05;;;;;;;7.97;3.83;;;;;;;24.58;40.70;100504.75;690382;28;1516;-43
2022/07/20 01:39:26;;;;;;;7.60;4.20;;;;;;;24.58;40.77;100500.25;690127;28;4371;-44
2022/07/20 01:39:46;;;;;;;6.70;3.93;;;;;;;24.57;41.06;100500.34;691581;28;995;-44
2022/07/20 01:40:07;;;;;;;6.10;3.88;;;;;;;24.56;41.16;100506.66;691824;28;1407;-46
2022/07/20 01:40:27;;;;;;;6.80;3.93;;;;;;;24.53;41.22;100501.53;690908;28;1319;-45
2022/07/20 01:40:48;;;;;;;4.90;3.60;;;;;;;24.51;40.90;100506.97;690937;28;1848;-44
2022/07/20 01:41:08;;;;;;;5.87;3.80;;;;;;;24.51;41.14;100503.41;691730;28;1075;-45
2022/07/20 01:41:29;;;;;;;6.85;3.92;;;;;;;24.48;41.49;100508.03;690916;28;1110;-45
2022/07/20 01:41:52;;;;;;;5.87;3.70;;;;;;;24.48;41.44;100504.50;692004;28;2466;-44
2022/07/20 01:42:13;;;;;;;5.50;3.55;;;;;;;24.46;41.07;100507.25;689279;28;1167;-45